createdAt,value
2023-04-17T00:04:19.680Z,96474.41
2023-04-17T00:14:26.419Z,96464.94
2023-04-17T00:24:32.956Z,96448.28
2023-04-17T00:34:41.642Z,96398.84
2023-04-17T00:44:48.233Z,96353.50
2023-04-17T00:54:56.696Z,96313.00
2023-04-17T01:05:03.372Z,96270.22
2023-04-17T01:15:10.257Z,96195.13
2023-04-17T01:25:16.816Z,96143.97
2023-04-17T01:35:23.623Z,96081.50
2023-04-17T01:45:29.187Z,96025.09
2023-04-17T01:55:35.691Z,95968.75
2023-04-17T02:05:42.266Z,95949.13
2023-04-17T02:15:48.853Z,95952.47
2023-04-17T02:25:55.400Z,95915.22
2023-04-17T02:36:01.895Z,95843.69
2023-04-17T02:46:08.533Z,95786.22
2023-04-17T02:56:15.042Z,95722.84
2023-04-17T03:06:21.788Z,95686.69
2023-04-17T03:16:28.342Z,95621.91
2023-04-17T03:26:34.862Z,95500.47
2023-04-17T03:36:41.591Z,95349.78
2023-04-17T03:46:48.257Z,95245.44
2023-04-17T03:56:54.748Z,95165.03
2023-04-17T04:07:02.902Z,95125.78
2023-04-17T04:17:09.435Z,95087.41
2023-04-17T04:27:18.895Z,95045.59
2023-04-17T04:37:31.199Z,94969.87
2023-04-17T04:47:37.920Z,94903.44
2023-04-17T04:57:44.465Z,94858.66
2023-04-17T05:07:51.179Z,94857.44
2023-04-17T05:17:57.669Z,94846.47
2023-04-17T05:28:04.239Z,94881.28
2023-04-17T05:38:10.810Z,94850.66
2023-04-17T05:48:17.593Z,94958.44
2023-04-17T05:58:24.716Z,95152.56
2023-04-17T06:08:31.276Z,95293.22
2023-04-17T06:18:37.763Z,95425.63
2023-04-17T06:28:44.590Z,95503.47
2023-04-17T06:38:51.228Z,95867.59
2023-04-17T06:49:00.860Z,95880.66
2023-04-17T06:59:07.448Z,96149.91
2023-04-17T07:09:14.045Z,96613.78
2023-04-17T07:19:21.034Z,96865.62
2023-04-17T07:29:28.066Z,96790.84
2023-04-17T07:39:34.668Z,96714.28
2023-04-17T07:49:41.873Z,96752.84
2023-04-17T07:59:48.532Z,96846.91
2023-04-17T08:09:55.028Z,96929.56
2023-04-17T08:20:03.536Z,96956.53
2023-04-17T08:30:14.243Z,97001.25
2023-04-17T08:40:24.594Z,97151.59
2023-04-17T08:50:31.202Z,97185.75
2023-04-17T09:00:39.182Z,97295.50
2023-04-17T09:10:47.556Z,97457.69
2023-04-17T09:20:54.473Z,97508.78
2023-04-17T09:31:02.671Z,97519.31
2023-04-17T09:41:24.109Z,97491.97
2023-04-17T09:51:31.190Z,97347.44
2023-04-17T10:01:39.084Z,97230.44
2023-04-17T10:11:47.532Z,97203.69
2023-04-17T10:22:29.692Z,97260.38
2023-04-17T10:32:36.240Z,97333.94
2023-04-17T10:42:42.900Z,97382.41
2023-04-17T10:52:50.576Z,97418.53
2023-04-17T11:02:57.174Z,97362.66
2023-04-17T11:13:03.731Z,97354.81
2023-04-17T11:23:11.071Z,97210.06
2023-04-17T11:33:17.948Z,97070.28
2023-04-17T11:43:25.368Z,96656.50
2023-04-17T11:53:32.268Z,96508.78
2023-04-17T12:03:39.042Z,96594.75
2023-04-17T12:13:45.958Z,96532.97
2023-04-17T12:23:52.863Z,96510.09
2023-04-17T12:33:59.347Z,96504.00
2023-04-17T12:44:05.919Z,96452.28
2023-04-17T12:54:12.546Z,96448.03
2023-04-17T13:04:20.180Z,96427.81
2023-04-17T13:14:27.331Z,96378.88
2023-04-17T13:24:34.254Z,96244.44
2023-04-17T13:34:40.909Z,96190.25
2023-04-17T13:44:47.508Z,96157.25
2023-04-17T13:54:54.039Z,96179.56
2023-04-17T14:05:00.746Z,96127.03
2023-04-17T14:15:08.769Z,96087.47
2023-04-17T14:25:18.482Z,95971.41
2023-04-17T14:35:25.185Z,95909.91
2023-04-17T14:45:32.266Z,95827.44
2023-04-17T14:55:38.783Z,95779.88
2023-04-17T15:05:46.873Z,95741.97
2023-04-17T15:15:53.352Z,95808.31
2023-04-17T15:25:59.971Z,95924.59
2023-04-17T15:36:06.587Z,96029.22
2023-04-17T15:46:13.470Z,96061.50
2023-04-17T15:56:20.132Z,96108.69
2023-04-17T16:06:27.322Z,96144.47
2023-04-17T16:16:33.915Z,96185.06
2023-04-17T16:26:40.480Z,96140.34
2023-04-17T16:36:47.026Z,96120.25
2023-04-17T16:47:11.973Z,96082.34
2023-04-17T16:57:19.954Z,96100.38
2023-04-17T17:07:26.463Z,96099.28
2023-04-17T17:17:33.050Z,96106.00
2023-04-17T17:27:39.962Z,96083.31
2023-04-17T17:37:46.545Z,96026.25
2023-04-17T17:47:53.143Z,96034.97
2023-04-17T17:57:59.742Z,96062.75
2023-04-17T18:08:06.231Z,96049.59
2023-04-17T18:18:12.749Z,96027.75
2023-04-17T18:28:19.222Z,95996.91
2023-04-17T18:38:25.743Z,95964.13
2023-04-17T18:48:32.236Z,95963.69
2023-04-17T18:58:41.508Z,95965.34
2023-04-17T19:08:48.000Z,95941.84
2023-04-17T19:18:55.116Z,95985.97
2023-04-17T19:29:01.224Z,95938.22
2023-04-17T19:39:07.928Z,95843.44
2023-04-17T19:49:14.609Z,95767.06
2023-04-17T19:59:21.368Z,95728.06
2023-04-17T20:09:27.804Z,95674.19
2023-04-17T20:19:34.303Z,95598.62
2023-04-17T20:29:40.766Z,95583.78
2023-04-17T20:39:47.285Z,95610.50
2023-04-17T20:49:53.739Z,95564.69
2023-04-17T21:00:00.260Z,95558.13
2023-04-17T21:10:07.262Z,95617.87
2023-04-17T21:20:14.649Z,95666.13
2023-04-17T21:30:21.204Z,95696.69
2023-04-17T21:40:33.063Z,95700.25
2023-04-17T21:50:42.551Z,95678.56
2023-04-17T22:00:49.185Z,95616.91
2023-04-17T22:10:55.716Z,95546.19
2023-04-17T22:21:02.639Z,95516.19
2023-04-17T22:31:09.115Z,95478.81
2023-04-17T22:41:15.706Z,95497.78
2023-04-17T22:51:22.301Z,95503.13
2023-04-17T23:01:29.037Z,95540.03
2023-04-17T23:11:35.607Z,95588.16
2023-04-17T23:21:42.390Z,95593.06
2023-04-17T23:31:48.891Z,95599.62
2023-04-17T23:41:56.745Z,95560.09
2023-04-17T23:52:03.660Z,95518.22
